createdAt,value
2018-05-13T00:01:07.826Z,70.72
2018-05-13T00:04:11.080Z,70.52
2018-05-13T00:07:14.366Z,70.88
2018-05-13T00:10:17.624Z,70.41
2018-05-13T00:13:20.894Z,70.91
2018-05-13T00:16:24.219Z,70.95
2018-05-13T00:19:28.240Z,70.84
2018-05-13T00:22:31.511Z,72.30
2018-05-13T00:25:35.538Z,71.23
2018-05-13T00:28:39.561Z,70.90
2018-05-13T00:31:42.818Z,71.53
2018-05-13T00:34:46.077Z,71.21
2018-05-13T00:37:49.332Z,72.24
2018-05-13T00:40:53.354Z,72.09
2018-05-13T00:43:57.376Z,72.21
2018-05-13T00:47:01.658Z,72.58
2018-05-13T00:50:04.917Z,71.83
2018-05-13T00:53:08.237Z,72.71
2018-05-13T00:56:11.702Z,73.09
2018-05-13T00:59:14.958Z,72.86
2018-05-13T01:02:18.218Z,72.91
2018-05-13T01:05:21.482Z,73.01
2018-05-13T01:08:24.756Z,72.84
2018-05-13T01:11:28.874Z,73.09
2018-05-13T01:14:32.895Z,73.42
2018-05-13T01:17:36.933Z,73.29
2018-05-13T01:20:40.205Z,74.36
2018-05-13T01:23:44.241Z,73.93
2018-05-13T01:26:48.260Z,73.59
2018-05-13T01:29:51.536Z,74.36
2018-05-13T01:32:54.858Z,73.88
2018-05-13T01:35:58.119Z,74.33
2018-05-13T01:39:01.386Z,74.26
2018-05-13T01:42:04.754Z,74.09
2018-05-13T01:45:08.005Z,74.38
2018-05-13T01:48:11.292Z,74.70
2018-05-13T01:51:14.550Z,74.36
2018-05-13T01:54:17.808Z,74.21
2018-05-13T01:57:22.478Z,74.55
2018-05-13T02:00:25.753Z,73.97
2018-05-13T02:03:29.780Z,74.47
2018-05-13T02:06:33.037Z,74.75
2018-05-13T02:09:36.281Z,75.08
2018-05-13T02:12:41.201Z,74.71
2018-05-13T02:15:45.210Z,74.55
2018-05-13T02:18:48.490Z,74.79
2018-05-13T02:21:52.677Z,74.42
2018-05-13T02:24:55.943Z,74.99
2018-05-13T02:27:59.281Z,74.75
2018-05-13T02:31:02.544Z,75.55
2018-05-13T02:34:05.803Z,75.55
2018-05-13T02:37:09.053Z,75.47
2018-05-13T02:40:12.307Z,75.32
2018-05-13T02:43:16.327Z,75.62
2018-05-13T02:46:19.586Z,75.99
2018-05-13T02:49:22.845Z,75.69
2018-05-13T02:52:26.119Z,75.42
2018-05-13T02:55:29.386Z,75.49
2018-05-13T02:58:32.661Z,75.13
2018-05-13T03:01:35.943Z,76.07
2018-05-13T03:04:39.184Z,76.62
2018-05-13T03:07:43.215Z,75.54
2018-05-13T03:10:47.952Z,75.69
2018-05-13T03:13:51.209Z,76.16
2018-05-13T03:16:54.473Z,75.80
2018-05-13T03:19:57.717Z,76.50
2018-05-13T03:23:00.987Z,75.66
2018-05-13T03:26:04.313Z,75.98
2018-05-13T03:29:07.626Z,75.93
2018-05-13T03:32:11.659Z,76.23
2018-05-13T03:35:14.909Z,75.74
2018-05-13T03:38:18.178Z,75.79
2018-05-13T03:41:21.448Z,75.81
2018-05-13T03:44:24.691Z,75.37
2018-05-13T03:47:27.965Z,75.75
2018-05-13T03:50:31.225Z,75.70
2018-05-13T03:53:35.257Z,76.62
2018-05-13T03:56:38.516Z,75.63
2018-05-13T03:59:41.786Z,75.62
2018-05-13T04:02:45.049Z,76.30
2018-05-13T04:05:49.131Z,76.87
2018-05-13T04:09:10.206Z,77.35
2018-05-13T04:12:31.161Z,77.46
2018-05-13T04:15:34.409Z,77.29
2018-05-13T04:18:37.679Z,77.69
2018-05-13T04:21:41.027Z,77.77
2018-05-13T04:24:45.101Z,77.27
2018-05-13T04:27:49.129Z,76.10
2018-05-13T04:30:52.385Z,75.30
2018-05-13T04:33:57.186Z,75.10
2018-05-13T04:37:00.934Z,75.89
2018-05-13T04:40:04.198Z,74.58
2018-05-13T04:43:07.494Z,74.47
2018-05-13T04:46:10.753Z,74.31
2018-05-13T04:49:14.013Z,74.00
2018-05-13T04:52:18.037Z,73.02
2018-05-13T04:55:21.303Z,73.00
2018-05-13T04:58:24.600Z,72.15
2018-05-13T05:01:27.879Z,71.77
2018-05-13T05:04:31.935Z,71.51
2018-05-13T05:07:35.225Z,71.75
2018-05-13T05:10:38.469Z,70.81
2018-05-13T05:13:41.739Z,70.73
2018-05-13T05:16:44.994Z,70.68
2018-05-13T05:19:48.246Z,70.32
2018-05-13T05:22:51.589Z,70.11
2018-05-13T05:25:55.605Z,69.99
2018-05-13T05:28:59.730Z,69.50
2018-05-13T05:32:03.019Z,69.08
2018-05-13T05:35:07.066Z,69.09
2018-05-13T05:38:10.336Z,69.48
2018-05-13T05:41:14.453Z,70.18
2018-05-13T05:44:18.479Z,69.83
2018-05-13T05:47:21.758Z,69.74
2018-05-13T05:50:25.781Z,67.44
2018-05-13T05:53:29.115Z,65.35
2018-05-13T05:56:32.387Z,61.55
2018-05-13T05:59:35.701Z,56.97
2018-05-13T06:02:39.751Z,54.41
2018-05-13T06:05:43.028Z,54.24
2018-05-13T06:08:46.348Z,51.59
2018-05-13T06:11:49.630Z,54.29
2018-05-13T06:14:53.676Z,53.66
2018-05-13T06:17:57.034Z,50.23
2018-05-13T06:21:00.350Z,49.91
2018-05-13T06:24:03.679Z,50.30
2018-05-13T06:27:06.961Z,53.90
2018-05-13T06:30:10.218Z,48.33
2018-05-13T06:33:13.490Z,48.55
2018-05-13T06:36:16.906Z,53.40
2018-05-13T06:39:20.213Z,53.82
2018-05-13T06:42:23.481Z,53.70
2018-05-13T06:45:26.750Z,52.76
2018-05-13T06:48:30.781Z,52.00
2018-05-13T06:51:34.163Z,53.11
2018-05-13T06:54:37.310Z,52.63
2018-05-13T07:01:11.424Z,51.63
2018-05-13T07:04:15.455Z,55.58
2018-05-13T07:07:20.197Z,57.84
2018-05-13T07:10:23.509Z,54.40
2018-05-13T07:13:26.757Z,56.11
2018-05-13T07:16:30.090Z,53.54
2018-05-13T07:19:33.295Z,53.14
2018-05-13T07:22:37.339Z,51.94
2018-05-13T07:25:40.592Z,51.77
2018-05-13T07:28:43.850Z,52.15
2018-05-13T07:31:47.164Z,50.74
2018-05-13T07:34:50.649Z,53.46
2018-05-13T07:37:53.948Z,55.73
2018-05-13T07:40:57.266Z,56.33
2018-05-13T07:44:00.583Z,54.16
2018-05-13T07:47:03.857Z,51.18
2018-05-13T07:50:07.884Z,54.92
2018-05-13T07:53:11.548Z,56.39
2018-05-13T07:56:14.867Z,50.73
2018-05-13T07:59:18.883Z,50.87
2018-05-13T08:02:22.137Z,52.12
2018-05-13T08:05:25.406Z,52.48
2018-05-13T08:08:28.722Z,52.35
2018-05-13T08:11:32.009Z,54.25
2018-05-13T08:14:36.049Z,53.90
2018-05-13T08:17:39.369Z,52.92
2018-05-13T08:20:42.739Z,51.50
2018-05-13T08:23:46.818Z,49.06
2018-05-13T08:26:50.077Z,47.13
2018-05-13T08:29:53.411Z,48.85
2018-05-13T08:32:56.675Z,49.25
2018-05-13T08:35:59.962Z,48.43
2018-05-13T08:39:04.419Z,49.37
2018-05-13T08:42:07.686Z,51.03
2018-05-13T08:45:11.088Z,50.16
2018-05-13T08:48:14.540Z,47.87
2018-05-13T08:51:17.802Z,49.00
2018-05-13T08:54:21.870Z,49.93
2018-05-13T08:57:25.169Z,51.13
2018-05-13T09:00:28.425Z,48.39
2018-05-13T09:03:32.133Z,49.83
2018-05-13T09:06:36.186Z,49.72
2018-05-13T09:09:39.440Z,52.70
2018-05-13T09:12:42.733Z,48.84
2018-05-13T09:15:47.258Z,48.67
2018-05-13T09:18:50.724Z,50.20
2018-05-13T09:21:54.053Z,47.35
2018-05-13T09:24:57.348Z,46.65
2018-05-13T09:28:00.599Z,46.23
2018-05-13T09:31:03.861Z,47.17
2018-05-13T09:34:07.174Z,49.19
2018-05-13T09:37:10.446Z,48.88
2018-05-13T09:40:13.752Z,46.10
2018-05-13T09:43:17.073Z,46.40
2018-05-13T09:46:20.343Z,45.96
2018-05-13T09:49:23.668Z,44.05
2018-05-13T09:52:28.371Z,43.13
2018-05-13T09:55:32.428Z,43.72
2018-05-13T09:58:35.688Z,45.69
2018-05-13T10:01:50.702Z,44.29
2018-05-13T10:04:55.039Z,42.02
2018-05-13T10:07:58.361Z,41.63
2018-05-13T10:11:01.621Z,41.56
2018-05-13T10:14:04.931Z,44.68
2018-05-13T10:17:08.210Z,45.68
2018-05-13T10:20:12.375Z,44.04
2018-05-13T10:23:15.948Z,45.94
2018-05-13T10:26:19.253Z,42.75
2018-05-13T10:29:22.554Z,41.24
2018-05-13T10:32:25.825Z,42.95
2018-05-13T10:35:29.095Z,43.61
2018-05-13T10:38:32.373Z,41.99
2018-05-13T10:41:35.664Z,42.15
2018-05-13T10:44:39.683Z,41.91
2018-05-13T10:47:43.868Z,44.26
2018-05-13T10:50:48.096Z,39.68
2018-05-13T10:53:51.359Z,40.41
2018-05-13T10:56:54.644Z,40.05
2018-05-13T10:59:58.147Z,39.31
2018-05-13T11:03:01.397Z,43.18
2018-05-13T11:06:04.660Z,37.52
2018-05-13T11:09:07.950Z,38.63
2018-05-13T11:12:11.215Z,36.95
2018-05-13T11:15:14.468Z,38.33
2018-05-13T11:18:18.553Z,39.05
2018-05-13T11:21:21.821Z,39.61
2018-05-13T11:24:25.082Z,39.74
2018-05-13T11:27:29.097Z,38.60
2018-05-13T11:30:33.122Z,40.28
2018-05-13T11:33:37.166Z,38.44
2018-05-13T11:36:40.433Z,39.36
2018-05-13T11:39:44.457Z,39.19
2018-05-13T11:42:48.581Z,38.42
2018-05-13T11:45:52.618Z,38.18
2018-05-13T11:48:56.641Z,37.80
2018-05-13T11:52:00.671Z,38.14
2018-05-13T11:55:04.702Z,37.70
2018-05-13T11:58:07.955Z,37.18
2018-05-13T12:01:11.220Z,36.58
2018-05-13T12:04:14.478Z,36.62
2018-05-13T12:07:17.767Z,37.09
2018-05-13T12:10:21.022Z,37.25
2018-05-13T12:13:26.226Z,36.72
2018-05-13T12:16:29.766Z,37.15
2018-05-13T12:19:33.784Z,38.27
2018-05-13T12:22:37.056Z,38.12
2018-05-13T12:25:40.301Z,36.94
2018-05-13T12:28:44.317Z,37.26
2018-05-13T12:31:47.586Z,36.05
2018-05-13T12:34:51.663Z,36.15
2018-05-13T12:37:55.693Z,36.75
2018-05-13T12:40:59.725Z,37.97
2018-05-13T12:44:02.988Z,37.16
2018-05-13T12:47:06.259Z,36.30
2018-05-13T12:50:09.601Z,36.31
2018-05-13T12:53:13.545Z,36.77
2018-05-13T12:56:17.755Z,35.48
2018-05-13T12:59:22.491Z,35.55
2018-05-13T13:02:25.848Z,36.34
2018-05-13T13:05:29.127Z,36.50
2018-05-13T13:08:32.419Z,35.36
2018-05-13T13:11:35.679Z,36.50
2018-05-13T13:14:38.965Z,35.79
2018-05-13T13:17:42.237Z,36.05
2018-05-13T13:20:45.495Z,35.91
2018-05-13T13:23:49.242Z,36.87
2018-05-13T13:26:52.549Z,34.43
2018-05-13T13:29:55.845Z,34.75
2018-05-13T13:32:59.942Z,35.45
2018-05-13T13:36:03.218Z,35.69
2018-05-13T13:39:06.560Z,36.35
2018-05-13T13:42:09.845Z,36.06
2018-05-13T13:45:14.127Z,36.79
2018-05-13T13:48:17.388Z,36.69
2018-05-13T13:51:20.654Z,36.86
2018-05-13T13:54:24.726Z,36.75
2018-05-13T13:57:28.005Z,37.33
2018-05-13T14:00:31.475Z,37.73
2018-05-13T14:03:35.505Z,37.06
2018-05-13T14:06:38.764Z,36.41
2018-05-13T14:09:42.058Z,36.75
2018-05-13T14:12:45.378Z,36.60
2018-05-13T14:15:48.629Z,35.86
2018-05-13T14:18:52.012Z,35.74
2018-05-13T14:21:55.293Z,35.54
2018-05-13T14:24:58.640Z,35.04
2018-05-13T14:28:03.007Z,35.25
2018-05-13T14:31:06.258Z,35.71
2018-05-13T14:34:09.517Z,34.78
2018-05-13T14:37:12.830Z,33.29
2018-05-13T14:40:16.195Z,32.94
2018-05-13T14:43:19.594Z,33.73
2018-05-13T14:46:23.055Z,33.48
2018-05-13T14:49:26.322Z,34.27
2018-05-13T14:52:29.582Z,34.90
2018-05-13T14:55:33.626Z,36.11
2018-05-13T14:58:36.890Z,35.98
2018-05-13T15:01:40.202Z,36.54
2018-05-13T15:04:44.497Z,35.78
2018-05-13T15:07:49.078Z,36.66
2018-05-13T15:10:53.150Z,35.83
2018-05-13T15:13:56.412Z,36.33
2018-05-13T15:16:59.670Z,36.14
2018-05-13T15:20:03.032Z,41.58
2018-05-13T15:23:07.830Z,45.17
2018-05-13T15:26:11.876Z,47.68
2018-05-13T15:29:15.127Z,49.10
2018-05-13T15:32:19.138Z,49.59
2018-05-13T15:35:22.733Z,50.04
2018-05-13T15:38:26.029Z,49.90
2018-05-13T15:41:29.289Z,50.90
2018-05-13T15:44:33.512Z,55.66
2018-05-13T15:47:36.769Z,58.37
2018-05-13T15:50:40.018Z,63.00
2018-05-13T15:53:43.297Z,61.92
2018-05-13T15:56:46.550Z,64.43
2018-05-13T15:59:49.857Z,66.21
2018-05-13T16:02:53.131Z,66.73
2018-05-13T16:05:56.379Z,65.21
2018-05-13T16:09:01.488Z,62.71
2018-05-13T16:12:04.825Z,63.86
2018-05-13T16:15:08.027Z,66.33
2018-05-13T16:18:13.215Z,65.77
2018-05-13T16:21:16.457Z,65.78
2018-05-13T16:24:19.719Z,65.57
2018-05-13T16:27:23.897Z,64.03
2018-05-13T16:30:28.132Z,63.45
2018-05-13T16:33:32.920Z,63.47
2018-05-13T16:36:36.182Z,62.76
2018-05-13T16:39:40.233Z,60.75
2018-05-13T16:42:43.544Z,61.66
2018-05-13T16:45:47.310Z,60.30
2018-05-13T16:48:51.330Z,53.55
2018-05-13T16:51:54.628Z,45.41
2018-05-13T16:54:58.139Z,44.69
2018-05-13T16:58:01.444Z,47.43
2018-05-13T17:01:05.464Z,44.75
2018-05-13T17:04:08.767Z,42.01
2018-05-13T17:07:12.067Z,35.29
2018-05-13T17:10:15.338Z,38.15
2018-05-13T17:13:18.745Z,43.95
2018-05-13T17:16:22.125Z,47.10
2018-05-13T17:19:25.433Z,51.06
2018-05-13T17:22:28.735Z,50.96
2018-05-13T17:25:32.071Z,56.08
2018-05-13T17:28:36.442Z,56.00
2018-05-13T17:31:39.697Z,55.68
2018-05-13T17:34:42.963Z,54.17
2018-05-13T17:37:47.987Z,57.57
2018-05-13T17:40:51.279Z,63.81
2018-05-13T17:43:55.319Z,67.38
2018-05-13T17:46:58.633Z,71.23
2018-05-13T17:50:02.286Z,72.56
2018-05-13T17:53:06.341Z,74.28
2018-05-13T17:56:09.641Z,74.80
2018-05-13T17:59:12.885Z,76.05
2018-05-13T18:02:16.179Z,75.78
2018-05-13T18:05:19.445Z,74.76
2018-05-13T18:08:22.707Z,76.07
2018-05-13T18:11:26.994Z,75.88
2018-05-13T18:14:30.269Z,76.61
2018-05-13T18:17:33.550Z,76.57
2018-05-13T18:20:37.566Z,76.12
2018-05-13T18:23:41.588Z,76.47
2018-05-13T18:26:45.644Z,77.02
2018-05-13T18:29:49.008Z,76.70
2018-05-13T18:32:52.325Z,76.59
2018-05-13T18:35:55.621Z,77.21
2018-05-13T18:38:59.692Z,79.70
2018-05-13T18:42:03.689Z,79.50
2018-05-13T18:45:07.715Z,78.12
2018-05-13T18:48:10.990Z,79.51
2018-05-13T18:51:15.033Z,78.56
2018-05-13T18:54:18.328Z,78.95
2018-05-13T18:57:21.601Z,80.60
2018-05-13T19:00:24.866Z,80.64
2018-05-13T19:03:28.224Z,80.67
2018-05-13T19:06:32.263Z,81.65
2018-05-13T19:09:35.629Z,82.28
2018-05-13T19:12:39.051Z,81.66
2018-05-13T19:15:43.080Z,80.81
2018-05-13T19:18:46.391Z,81.10
2018-05-13T19:21:50.402Z,79.65
2018-05-13T19:24:53.674Z,78.31
2018-05-13T19:27:56.927Z,79.38
2018-05-13T19:31:00.313Z,79.07
2018-05-13T19:34:04.312Z,78.48
2018-05-13T19:37:07.653Z,79.09
2018-05-13T19:40:12.065Z,79.11
2018-05-13T19:43:15.811Z,79.66
2018-05-13T19:46:19.267Z,80.43
2018-05-13T19:49:25.681Z,79.31
2018-05-13T19:52:29.060Z,79.46
2018-05-13T19:55:32.340Z,79.46
2018-05-13T19:58:36.567Z,80.94
2018-05-13T20:01:44.018Z,79.09
2018-05-13T20:04:48.191Z,79.36
2018-05-13T20:07:51.477Z,79.43
2018-05-13T20:10:54.779Z,79.25
2018-05-13T20:13:59.312Z,80.79
2018-05-13T20:17:03.384Z,81.37
2018-05-13T20:20:07.516Z,81.10
2018-05-13T20:23:26.780Z,80.55
2018-05-13T20:26:30.039Z,80.33
2018-05-13T20:29:34.090Z,80.75
2018-05-13T20:32:37.364Z,79.96
2018-05-13T20:35:40.616Z,80.01
2018-05-13T20:38:44.068Z,80.51
2018-05-13T20:41:48.089Z,80.14
2018-05-13T20:44:52.155Z,80.82
2018-05-13T20:47:55.410Z,81.52
2018-05-13T20:50:59.446Z,81.39
2018-05-13T20:54:02.834Z,82.03
2018-05-13T20:57:06.086Z,82.37
2018-05-13T21:00:09.391Z,81.67
2018-05-13T21:03:12.645Z,81.50
2018-05-13T21:06:15.910Z,82.41
2018-05-13T21:09:19.982Z,81.18
2018-05-13T21:12:23.354Z,82.13
2018-05-13T21:15:26.622Z,81.60
2018-05-13T21:18:29.875Z,80.24
2018-05-13T21:21:33.156Z,80.87
2018-05-13T21:24:36.687Z,81.53
2018-05-13T21:27:39.933Z,80.81
2018-05-13T21:30:43.186Z,81.51
2018-05-13T21:33:46.809Z,81.21
2018-05-13T21:36:50.077Z,81.50
2018-05-13T21:39:54.133Z,81.01
2018-05-13T21:42:57.393Z,81.44
2018-05-13T21:46:01.506Z,80.97
2018-05-13T21:49:05.531Z,81.25
2018-05-13T21:52:09.607Z,81.28
2018-05-13T21:55:12.877Z,81.35
2018-05-13T21:58:16.153Z,81.69
2018-05-13T22:01:19.461Z,81.82
2018-05-13T22:04:22.783Z,82.61
2018-05-13T22:07:26.038Z,83.28
2018-05-13T22:10:29.354Z,81.79
2018-05-13T22:13:33.373Z,81.65
2018-05-13T22:16:37.394Z,81.43
2018-05-13T22:19:41.416Z,82.80
2018-05-13T22:22:45.434Z,83.07
2018-05-13T22:25:48.737Z,82.39
2018-05-13T22:28:51.953Z,83.05
2018-05-13T22:31:55.441Z,82.17
2018-05-13T22:34:59.498Z,83.57
2018-05-13T22:38:02.754Z,83.32
2018-05-13T22:41:06.816Z,83.49
2018-05-13T22:44:10.171Z,83.29
2018-05-13T22:47:14.299Z,84.01
2018-05-13T22:50:18.349Z,83.12
2018-05-13T22:53:22.334Z,83.14
2018-05-13T22:56:25.622Z,82.58
2018-05-13T22:59:29.656Z,82.21
2018-05-13T23:02:33.017Z,82.66
2018-05-13T23:05:36.306Z,82.27
2018-05-13T23:08:39.567Z,82.19
2018-05-13T23:11:42.849Z,84.22
2018-05-13T23:14:46.145Z,84.76
2018-05-13T23:17:50.169Z,85.54
2018-05-13T23:20:53.433Z,85.33
2018-05-13T23:23:56.692Z,84.11
2018-05-13T23:27:00.121Z,83.30
2018-05-13T23:30:03.499Z,83.75
2018-05-13T23:33:06.969Z,84.69
2018-05-13T23:36:11.000Z,83.75
2018-05-13T23:39:14.288Z,83.49
2018-05-13T23:42:17.529Z,83.22
2018-05-13T23:45:20.782Z,83.12
2018-05-13T23:48:24.843Z,83.33
2018-05-13T23:51:28.191Z,83.04
2018-05-13T23:54:31.385Z,83.02
2018-05-13T23:57:35.410Z,83.50
